createdAt,value
2018-01-02T00:02:19.384Z,4.80
2018-01-02T00:04:46.929Z,4.70
2018-01-02T00:07:14.467Z,4.70
2018-01-02T00:09:42.038Z,4.70
2018-01-02T00:15:02.971Z,4.70
2018-01-02T00:17:30.491Z,4.70
2018-01-02T00:19:58.042Z,4.70
2018-01-02T00:22:25.570Z,4.70
2018-01-02T00:24:53.118Z,4.70
2018-01-02T00:27:20.718Z,4.70
2018-01-02T00:29:49.078Z,4.70
2018-01-02T00:32:16.623Z,4.70
2018-01-02T00:34:44.190Z,4.80
2018-01-02T00:37:11.714Z,4.80
2018-01-02T00:39:39.278Z,4.80
2018-01-02T00:42:06.798Z,4.80
2018-01-02T00:44:34.351Z,4.80
2018-01-02T00:47:02.644Z,4.90
2018-01-02T00:49:30.206Z,4.80
2018-01-02T00:51:57.734Z,4.90
2018-01-02T00:54:26.064Z,4.90
2018-01-02T00:56:53.590Z,4.90
2018-01-02T00:59:21.133Z,4.90
2018-01-02T01:01:49.430Z,4.90
2018-01-02T01:04:16.987Z,4.90
2018-01-02T01:06:44.510Z,4.80
2018-01-02T01:09:12.068Z,4.80
2018-01-02T01:11:39.601Z,4.90
2018-01-02T01:14:07.150Z,4.80
2018-01-02T01:16:34.727Z,4.80
2018-01-02T01:19:08.785Z,4.90
2018-01-02T01:21:38.740Z,4.80
2018-01-02T01:24:07.763Z,4.80
2018-01-02T01:26:35.836Z,4.90
2018-01-02T01:29:08.941Z,4.90
2018-01-02T01:31:38.110Z,4.90
2018-01-02T01:34:10.542Z,4.90
2018-01-02T01:36:39.000Z,4.90
2018-01-02T01:39:08.083Z,4.90
2018-01-02T01:41:36.620Z,4.90
2018-01-02T01:44:05.173Z,4.80
2018-01-02T01:46:33.722Z,4.60
2018-01-02T01:49:01.850Z,4.60
2018-01-02T01:51:30.332Z,4.50
2018-01-02T01:53:57.889Z,4.50
2018-01-02T01:56:25.415Z,4.40
2018-01-02T01:58:52.966Z,4.20
2018-01-02T02:01:20.502Z,4.00
2018-01-02T02:03:48.056Z,3.90
2018-01-02T02:06:15.586Z,3.90
2018-01-02T02:08:43.131Z,3.90
2018-01-02T02:11:11.426Z,3.90
2018-01-02T02:13:38.974Z,3.90
2018-01-02T02:19:17.363Z,3.70
2018-01-02T02:21:44.887Z,3.70
2018-01-02T02:24:12.434Z,3.70
2018-01-02T02:26:39.966Z,3.60
2018-01-02T02:29:07.517Z,3.70
2018-01-02T02:31:35.038Z,3.70
2018-01-02T02:34:02.588Z,3.60
2018-01-02T02:36:30.113Z,3.60
2018-01-02T02:38:58.450Z,3.80
2018-01-02T02:41:25.976Z,3.70
2018-01-02T02:43:53.530Z,3.70
2018-01-02T02:46:21.063Z,3.80
2018-01-02T02:48:49.380Z,3.80
2018-01-02T02:51:16.922Z,3.80
2018-01-02T02:53:44.470Z,3.80
2018-01-02T02:56:12.763Z,3.80
2018-01-02T02:58:40.314Z,3.80
2018-01-02T03:01:07.839Z,3.80
2018-01-02T03:03:35.381Z,3.80
2018-01-02T03:06:02.902Z,3.80
2018-01-02T03:08:30.460Z,3.90
2018-01-02T03:10:57.994Z,3.90
2018-01-02T03:13:26.318Z,4.00
2018-01-02T03:15:53.839Z,4.00
2018-01-02T03:18:22.157Z,4.10
2018-01-02T03:20:49.691Z,4.00
2018-01-02T03:23:17.247Z,4.10
2018-01-02T03:25:44.778Z,4.10
2018-01-02T03:28:12.301Z,4.20
2018-01-02T03:30:39.952Z,4.20
2018-01-02T03:33:07.507Z,4.20
2018-01-02T03:35:35.078Z,4.30
2018-01-02T03:38:02.666Z,4.40
2018-01-02T03:40:30.228Z,4.40
2018-01-02T03:42:57.768Z,4.40
2018-01-02T03:45:25.431Z,4.40
2018-01-02T03:47:52.957Z,4.40
2018-01-02T03:50:20.510Z,4.50
2018-01-02T03:52:48.093Z,4.50
2018-01-02T03:55:15.690Z,4.50
2018-01-02T03:57:43.198Z,4.60
2018-01-02T04:00:10.793Z,4.60
2018-01-02T04:02:38.366Z,4.60
2018-01-02T04:05:05.918Z,4.50
2018-01-02T04:07:33.441Z,4.50
2018-01-02T04:10:01.018Z,4.50
2018-01-02T04:12:28.550Z,4.50
2018-01-02T04:14:56.101Z,4.50
2018-01-02T04:17:24.386Z,4.60
2018-01-02T04:19:51.941Z,4.50
2018-01-02T04:22:19.478Z,4.60
2018-01-02T04:24:47.017Z,4.60
2018-01-02T04:27:14.542Z,4.50
2018-01-02T04:29:42.115Z,4.50
2018-01-02T04:32:09.649Z,4.40
2018-01-02T04:34:37.206Z,4.30
2018-01-02T04:37:04.725Z,4.20
2018-01-02T04:39:32.271Z,4.30
2018-01-02T04:41:59.805Z,4.30
2018-01-02T04:44:27.352Z,4.20
2018-01-02T04:46:54.873Z,4.10
2018-01-02T04:49:22.440Z,4.10
2018-01-02T04:51:50.734Z,3.90
2018-01-02T04:54:19.044Z,3.90
2018-01-02T04:56:46.571Z,3.90
2018-01-02T04:59:14.117Z,3.90
2018-01-02T05:01:42.422Z,3.80
2018-01-02T05:04:09.979Z,3.80
2018-01-02T05:06:37.511Z,3.70
2018-01-02T05:09:05.826Z,3.60
2018-01-02T05:11:33.356Z,3.60
2018-01-02T05:14:01.692Z,3.70
2018-01-02T05:16:29.217Z,3.70
2018-01-02T05:18:56.770Z,3.60
2018-01-02T05:21:24.299Z,3.60
2018-01-02T05:23:51.850Z,3.60
2018-01-02T05:26:19.377Z,3.60
2018-01-02T05:28:46.902Z,3.70
2018-01-02T05:31:14.450Z,3.80
2018-01-02T05:33:42.757Z,3.70
2018-01-02T05:36:13.503Z,3.70
2018-01-02T05:38:41.052Z,3.70
2018-01-02T05:41:08.652Z,3.80
2018-01-02T05:43:36.193Z,3.90
2018-01-02T05:46:03.755Z,4.00
2018-01-02T05:48:31.291Z,4.00
2018-01-02T05:50:58.848Z,4.00
2018-01-02T05:53:26.386Z,4.10
2018-01-02T05:55:54.710Z,4.10
2018-01-02T05:58:22.235Z,4.00
2018-01-02T06:00:49.785Z,4.10
2018-01-02T06:03:18.078Z,4.10
2018-01-02T06:05:45.624Z,4.10
2018-01-02T06:08:13.159Z,4.20
2018-01-02T06:10:40.720Z,4.20
2018-01-02T06:13:09.017Z,4.20
2018-01-02T06:15:36.571Z,4.20
2018-01-02T06:18:04.866Z,4.20
2018-01-02T06:20:32.424Z,4.20
2018-01-02T06:22:59.949Z,4.20
2018-01-02T06:25:27.517Z,4.20
2018-01-02T06:27:55.811Z,4.20
2018-01-02T06:51:25.810Z,4.30
2018-01-02T06:53:53.343Z,4.20
2018-01-02T06:56:20.901Z,4.30
2018-01-02T06:58:48.442Z,4.30
2018-01-02T07:01:22.781Z,4.30
2018-01-02T07:03:50.314Z,4.30
2018-01-02T07:06:18.645Z,4.40
2018-01-02T07:08:46.171Z,4.30
2018-01-02T07:11:13.747Z,4.40
2018-01-02T07:13:41.295Z,4.40
2018-01-02T07:16:08.860Z,4.40
2018-01-02T07:18:36.396Z,4.40
2018-01-02T07:21:04.731Z,4.40
2018-01-02T07:23:39.911Z,4.40
2018-01-02T07:26:08.237Z,4.40
2018-01-02T07:28:39.428Z,4.40
2018-01-02T07:31:07.825Z,4.40
2018-01-02T07:33:36.142Z,4.40
2018-01-02T07:36:03.702Z,4.40
2018-01-02T07:38:31.230Z,4.50
2018-01-02T07:40:58.795Z,4.50
2018-01-02T07:43:26.323Z,4.50
2018-01-02T07:45:54.622Z,4.60
2018-01-02T07:48:22.193Z,4.60
2018-01-02T07:50:49.718Z,4.60
2018-01-02T07:53:17.283Z,4.70
2018-01-02T07:55:45.617Z,4.60
2018-01-02T07:58:13.167Z,4.60
2018-01-02T08:00:40.721Z,4.70
2018-01-02T08:03:08.306Z,4.70
2018-01-02T08:05:35.862Z,4.60
2018-01-02T08:08:04.251Z,4.80
2018-01-02T08:10:31.782Z,4.70
2018-01-02T08:12:59.359Z,4.70
2018-01-02T08:15:26.950Z,4.70
2018-01-02T08:17:54.501Z,4.70
2018-01-02T08:20:22.027Z,4.80
2018-01-02T08:22:49.583Z,4.70
2018-01-02T08:25:17.105Z,4.80
2018-01-02T08:27:45.429Z,4.80
2018-01-02T08:30:12.965Z,4.80
2018-01-02T08:32:40.518Z,4.80
2018-01-02T08:35:08.054Z,4.80
2018-01-02T08:37:36.386Z,4.80
2018-01-02T08:40:03.911Z,4.80
2018-01-02T08:42:31.471Z,4.80
2018-01-02T08:44:59.008Z,4.80
2018-01-02T08:47:27.311Z,4.90
2018-01-02T08:49:54.854Z,4.90
2018-01-02T08:52:23.199Z,5.00
2018-01-02T08:54:50.813Z,5.00
2018-01-02T08:57:18.337Z,5.00
2018-01-02T08:59:45.903Z,5.00
2018-01-02T09:02:14.210Z,5.10
2018-01-02T09:04:41.778Z,5.00
2018-01-02T09:07:09.323Z,5.10
2018-01-02T09:09:36.866Z,5.20
2018-01-02T09:12:05.185Z,5.20
2018-01-02T09:14:38.485Z,5.20
2018-01-02T09:17:06.013Z,5.20
2018-01-02T09:19:33.565Z,5.30
2018-01-02T09:22:01.863Z,5.40
2018-01-02T09:24:29.417Z,5.40
2018-01-02T09:26:56.937Z,5.50
2018-01-02T09:29:24.494Z,5.60
2018-01-02T09:31:52.018Z,5.70
2018-01-02T09:34:19.573Z,5.80
2018-01-02T09:36:47.099Z,5.80
2018-01-02T09:39:15.417Z,5.80
2018-01-02T09:41:42.943Z,5.80
2018-01-02T09:44:11.258Z,5.80
2018-01-02T09:46:38.777Z,5.80
2018-01-02T09:49:07.109Z,5.80
2018-01-02T09:51:35.398Z,5.70
2018-01-02T09:54:02.928Z,5.70
2018-01-02T09:56:30.466Z,5.70
2018-01-02T09:58:57.985Z,5.70
2018-01-02T10:01:25.539Z,5.60
2018-01-02T10:03:53.059Z,5.70
2018-01-02T10:06:20.606Z,5.70
2018-01-02T10:08:48.124Z,5.70
2018-01-02T10:11:15.667Z,5.80
2018-01-02T10:13:43.205Z,5.90
2018-01-02T10:16:10.811Z,6.00
2018-01-02T10:18:38.401Z,6.30
2018-01-02T10:21:05.950Z,6.50
2018-01-02T10:23:33.469Z,6.50
2018-01-02T10:26:01.014Z,6.50
2018-01-02T10:28:28.538Z,6.50
2018-01-02T10:30:56.090Z,6.30
2018-01-02T10:33:23.613Z,6.30
2018-01-02T10:35:51.207Z,6.10
2018-01-02T10:38:19.497Z,6.00
2018-01-02T10:40:47.089Z,6.00
2018-01-02T10:43:14.609Z,5.90
2018-01-02T10:45:42.167Z,6.10
2018-01-02T10:48:09.695Z,6.10
2018-01-02T10:50:37.304Z,6.10
2018-01-02T10:53:04.825Z,6.10
2018-01-02T10:55:33.166Z,6.30
2018-01-02T10:58:00.689Z,6.30
2018-01-02T11:00:28.238Z,6.30
2018-01-02T11:02:57.243Z,6.20
2018-01-02T11:05:25.210Z,6.20
2018-01-02T11:07:52.795Z,6.30
2018-01-02T11:10:20.338Z,6.30
2018-01-02T11:12:53.869Z,6.30
2018-01-02T11:15:21.425Z,6.30
2018-01-02T11:17:49.726Z,6.10
2018-01-02T11:20:17.246Z,6.10
2018-01-02T11:22:44.793Z,5.90
2018-01-02T11:25:12.313Z,5.90
2018-01-02T11:27:39.873Z,5.90
2018-01-02T11:30:07.393Z,5.90
2018-01-02T11:32:34.949Z,5.80
2018-01-02T11:35:02.474Z,5.90
2018-01-02T11:37:30.034Z,5.90
2018-01-02T11:39:58.322Z,6.10
2018-01-02T11:42:25.873Z,6.10
2018-01-02T11:44:53.406Z,6.00
2018-01-02T11:47:20.970Z,5.90
2018-01-02T11:49:48.499Z,6.00
2018-01-02T11:52:16.101Z,6.00
2018-01-02T11:54:43.598Z,6.00
2018-01-02T11:57:11.407Z,6.10
2018-01-02T11:59:39.195Z,6.20
2018-01-02T12:02:06.794Z,6.20
2018-01-02T12:04:34.557Z,6.10
2018-01-02T12:07:02.107Z,6.00
2018-01-02T12:09:29.715Z,6.10
2018-01-02T12:11:58.357Z,6.00
2018-01-02T12:14:26.758Z,6.10
2018-01-02T12:16:54.366Z,6.10
2018-01-02T12:19:22.662Z,6.10
2018-01-02T12:21:50.255Z,6.10
2018-01-02T12:24:17.863Z,6.20
2018-01-02T12:26:46.189Z,6.30
2018-01-02T12:29:13.990Z,6.30
2018-01-02T12:31:42.170Z,6.30
2018-01-02T12:34:09.906Z,6.30
2018-01-02T12:36:37.818Z,6.20
2018-01-02T12:39:06.467Z,6.30
2018-01-02T12:41:34.234Z,6.30
2018-01-02T12:44:01.765Z,6.30
2018-01-02T12:46:29.493Z,6.20
2018-01-02T12:48:57.057Z,6.20
2018-01-02T12:51:25.483Z,6.20
2018-01-02T12:53:53.686Z,6.20
2018-01-02T12:56:21.494Z,6.20
2018-01-02T12:58:49.299Z,6.30
2018-01-02T13:01:16.850Z,6.20
2018-01-02T13:03:44.613Z,6.20
2018-01-02T13:06:12.318Z,6.10
2018-01-02T13:08:40.877Z,6.20
2018-01-02T13:11:08.950Z,6.20
2018-01-02T13:13:36.599Z,6.30
2018-01-02T13:16:04.146Z,6.30
2018-01-02T13:18:31.670Z,6.20
2018-01-02T13:20:59.198Z,6.20
2018-01-02T13:23:26.750Z,6.20
2018-01-02T13:25:54.526Z,6.20
2018-01-02T13:28:22.081Z,6.30
2018-01-02T13:30:49.613Z,6.20
2018-01-02T13:33:17.161Z,6.20
2018-01-02T13:35:44.694Z,6.10
2018-01-02T13:38:12.242Z,6.10
2018-01-02T13:40:40.526Z,6.20
2018-01-02T13:43:08.842Z,6.10
2018-01-02T13:45:36.388Z,6.10
2018-01-02T13:48:03.929Z,6.20
2018-01-02T13:50:31.461Z,6.20
2018-01-02T13:52:59.020Z,6.20
2018-01-02T13:55:27.320Z,6.10
2018-01-02T13:57:55.738Z,6.10
2018-01-02T14:00:23.261Z,6.10
2018-01-02T14:02:50.858Z,6.10
2018-01-02T14:05:18.407Z,6.20
2018-01-02T14:07:45.953Z,6.20
2018-01-02T14:10:13.473Z,6.20
2018-01-02T14:12:41.030Z,6.20
2018-01-02T14:15:08.554Z,6.30
2018-01-02T14:17:36.113Z,6.20
2018-01-02T14:20:03.635Z,6.20
2018-01-02T14:22:31.174Z,6.20
2018-01-02T14:24:58.722Z,6.20
2018-01-02T14:27:26.254Z,6.20
2018-01-02T14:29:53.802Z,6.20
2018-01-02T14:32:21.336Z,6.10
2018-01-02T14:34:48.884Z,6.20
2018-01-02T14:37:17.169Z,6.20
2018-01-02T14:39:45.485Z,6.20
2018-01-02T14:42:13.010Z,6.20
2018-01-02T14:44:40.562Z,6.20
2018-01-02T14:47:08.849Z,6.20
2018-01-02T14:49:36.400Z,6.20
2018-01-02T14:52:04.701Z,6.20
2018-01-02T14:54:32.249Z,6.20
2018-01-02T14:56:59.770Z,6.20
2018-01-02T14:59:27.315Z,6.30
2018-01-02T15:01:54.846Z,6.20
2018-01-02T15:04:22.399Z,6.20
2018-01-02T15:06:49.927Z,6.20
2018-01-02T15:09:18.238Z,6.10
2018-01-02T15:11:45.762Z,6.10
2018-01-02T15:14:14.055Z,6.10
2018-01-02T15:16:41.602Z,6.10
2018-01-02T15:19:09.908Z,6.00
2018-01-02T15:21:37.453Z,6.00
2018-01-02T15:24:04.983Z,6.00
2018-01-02T15:26:32.545Z,6.00
2018-01-02T15:29:00.082Z,6.00
2018-01-02T15:31:27.627Z,6.00
2018-01-02T15:33:55.158Z,6.00
2018-01-02T15:36:22.710Z,5.90
2018-01-02T15:38:50.240Z,5.90
2018-01-02T15:41:17.803Z,5.90
2018-01-02T15:43:52.726Z,5.80
2018-01-02T15:46:20.289Z,5.80
2018-01-02T15:48:47.815Z,5.80
2018-01-02T15:51:16.130Z,5.80
2018-01-02T15:53:44.431Z,5.80
2018-01-02T15:56:11.982Z,5.80
2018-01-02T15:58:40.275Z,5.80
2018-01-02T16:01:07.829Z,5.70
2018-01-02T16:03:35.359Z,5.80
2018-01-02T16:06:02.911Z,5.80
2018-01-02T16:08:30.455Z,5.80
2018-01-02T16:10:58.005Z,5.70
2018-01-02T16:13:25.529Z,5.80
2018-01-02T16:15:53.086Z,5.70
2018-01-02T16:18:20.609Z,5.70
2018-01-02T16:20:48.129Z,5.70
2018-01-02T16:23:15.675Z,5.80
2018-01-02T16:25:43.197Z,5.80
2018-01-02T16:28:10.742Z,5.90
2018-01-02T16:30:38.270Z,5.90
2018-01-02T16:33:05.965Z,6.00
2018-01-02T16:35:33.532Z,5.90
2018-01-02T16:38:01.089Z,5.90
2018-01-02T16:40:28.674Z,5.90
2018-01-02T16:42:57.024Z,5.90
2018-01-02T16:45:24.559Z,5.90
2018-01-02T16:47:52.177Z,5.80
2018-01-02T16:50:19.726Z,5.80
2018-01-02T16:52:48.041Z,5.80
2018-01-02T16:55:15.563Z,5.80
2018-01-02T16:57:43.142Z,5.80
2018-01-02T17:00:10.673Z,5.90
2018-01-02T17:02:38.229Z,5.80
2018-01-02T17:05:05.759Z,5.70
2018-01-02T17:07:33.321Z,5.70
2018-01-02T17:10:00.921Z,5.60
2018-01-02T17:12:29.250Z,5.70
2018-01-02T17:14:56.826Z,5.60
2018-01-02T17:17:24.443Z,5.50
2018-01-02T17:19:51.981Z,5.50
2018-01-02T17:22:20.354Z,5.40
2018-01-02T17:24:48.764Z,5.30
2018-01-02T17:27:16.317Z,5.30
2018-01-02T17:29:43.854Z,5.30
2018-01-02T17:32:11.412Z,5.30
2018-01-02T17:34:38.934Z,5.20
2018-01-02T17:37:06.499Z,5.20
2018-01-02T17:39:34.035Z,5.20
2018-01-02T17:42:01.606Z,5.10
2018-01-02T17:44:29.149Z,5.10
2018-01-02T17:46:56.708Z,5.20
2018-01-02T17:49:24.239Z,5.20
2018-01-02T17:51:52.530Z,5.20
2018-01-02T17:54:20.089Z,5.20
2018-01-02T17:56:47.630Z,5.20
2018-01-02T17:59:15.959Z,5.20
2018-01-02T18:01:43.489Z,5.20
2018-01-02T18:04:11.039Z,5.30
2018-01-02T18:06:39.335Z,5.30
2018-01-02T18:09:06.886Z,5.20
2018-01-02T18:11:34.413Z,5.20
2018-01-02T18:14:01.963Z,5.20
2018-01-02T18:16:29.500Z,5.20
2018-01-02T18:18:57.069Z,5.30
2018-01-02T18:21:24.598Z,5.30
2018-01-02T18:23:52.153Z,5.30
2018-01-02T18:26:19.687Z,5.20
2018-01-02T18:28:48.036Z,5.20
2018-01-02T18:31:15.571Z,5.20
2018-01-02T18:33:43.127Z,5.10
2018-01-02T18:36:10.657Z,5.20
2018-01-02T18:38:38.978Z,5.10
2018-01-02T18:41:06.514Z,5.10
2018-01-02T18:43:34.078Z,5.10
2018-01-02T18:46:01.601Z,5.10
2018-01-02T18:48:29.917Z,5.00
2018-01-02T18:50:57.443Z,5.00
2018-01-02T18:53:25.776Z,5.00
2018-01-02T18:55:53.296Z,4.90
2018-01-02T18:58:20.848Z,5.00
2018-01-02T19:00:48.390Z,5.00
2018-01-02T19:03:16.714Z,5.00
2018-01-02T19:05:44.249Z,5.00
2018-01-02T19:08:11.794Z,5.10
2018-01-02T19:10:40.088Z,5.10
2018-01-02T19:13:07.643Z,5.10
2018-01-02T19:15:35.178Z,5.10
2018-01-02T19:18:02.733Z,5.10
2018-01-02T19:20:31.037Z,5.10
2018-01-02T19:22:58.590Z,5.10
2018-01-02T19:25:26.918Z,5.10
2018-01-02T19:27:54.510Z,5.10
2018-01-02T19:30:22.038Z,5.10
2018-01-02T19:32:49.597Z,5.10
2018-01-02T19:35:17.134Z,5.10
2018-01-02T19:37:44.683Z,5.10
2018-01-02T19:40:12.218Z,5.00
2018-01-02T19:42:40.549Z,5.10
2018-01-02T19:45:08.077Z,5.00
2018-01-02T19:47:35.637Z,5.10
2018-01-02T19:50:03.202Z,5.10
2018-01-02T19:52:30.786Z,5.00
2018-01-02T19:54:58.330Z,5.00
2018-01-02T19:57:25.874Z,5.00
2018-01-02T19:59:53.514Z,5.00
2018-01-02T20:02:21.826Z,5.00
2018-01-02T20:04:49.398Z,5.00
2018-01-02T20:07:16.937Z,5.00
2018-01-02T20:09:44.492Z,5.10
2018-01-02T20:12:12.029Z,5.00
2018-01-02T20:14:40.373Z,5.00
2018-01-02T20:17:07.940Z,5.00
2018-01-02T20:19:35.497Z,5.10
2018-01-02T20:22:03.027Z,5.00
2018-01-02T20:24:30.582Z,5.10
2018-01-02T20:26:58.127Z,5.00
2018-01-02T20:29:25.741Z,5.00
2018-01-02T20:31:53.314Z,5.10
2018-01-02T20:34:20.869Z,5.10
2018-01-02T20:36:48.408Z,5.10
2018-01-02T20:39:15.976Z,5.00
2018-01-02T20:41:44.325Z,5.00
2018-01-02T20:44:11.889Z,5.00
2018-01-02T20:46:39.426Z,5.00
2018-01-02T20:49:06.983Z,5.00
2018-01-02T20:51:35.290Z,5.00
2018-01-02T20:54:02.858Z,5.00
2018-01-02T20:56:30.493Z,5.00
2018-01-02T20:58:58.189Z,5.00
2018-01-02T21:01:25.812Z,5.00
2018-01-02T21:03:54.670Z,5.10
2018-01-02T21:06:22.250Z,5.10
2018-01-02T21:08:50.614Z,5.10
2018-01-02T21:11:18.199Z,5.10
2018-01-02T21:13:45.763Z,5.10
2018-01-02T21:16:13.290Z,5.10
2018-01-02T21:18:41.121Z,5.10
2018-01-02T21:21:09.838Z,5.10
2018-01-02T21:23:37.784Z,5.10
2018-01-02T21:26:05.309Z,5.10
2018-01-02T21:28:32.873Z,5.20
2018-01-02T21:31:00.405Z,5.20
2018-01-02T21:33:28.728Z,5.20
2018-01-02T21:35:56.260Z,5.20
2018-01-02T21:38:23.810Z,5.30
2018-01-02T21:40:52.251Z,5.30
2018-01-02T21:43:20.610Z,5.20
2018-01-02T21:45:48.161Z,5.20
2018-01-02T21:48:16.545Z,5.30
2018-01-02T21:50:44.062Z,5.30
2018-01-02T21:53:12.382Z,5.30
2018-01-02T21:55:40.118Z,5.30
2018-01-02T21:58:07.662Z,5.30
2018-01-02T22:00:35.964Z,5.30
2018-01-02T22:03:03.514Z,5.30
2018-01-02T22:05:31.042Z,5.40
2018-01-02T22:07:58.569Z,5.40
2018-01-02T22:10:26.118Z,5.40
2018-01-02T22:12:53.974Z,5.40
2018-01-02T22:15:21.522Z,5.40
2018-01-02T22:17:49.041Z,5.40
2018-01-02T22:20:16.592Z,5.40
2018-01-02T22:22:44.133Z,5.40
2018-01-02T22:25:11.695Z,5.40
2018-01-02T22:27:39.219Z,5.50
2018-01-02T22:30:06.761Z,5.50
2018-01-02T22:32:35.093Z,5.60
2018-01-02T22:35:03.135Z,5.50
2018-01-02T22:37:30.714Z,5.60
2018-01-02T22:39:58.265Z,5.60
2018-01-02T22:42:25.786Z,5.60
2018-01-02T22:44:54.093Z,5.60
2018-01-02T22:47:21.614Z,5.60
2018-01-02T22:49:49.160Z,5.70
2018-01-02T22:52:16.738Z,5.70
2018-01-02T22:54:45.086Z,5.70
2018-01-02T22:57:12.670Z,5.70
2018-01-02T22:59:40.417Z,5.70
2018-01-02T23:02:08.029Z,5.80
2018-01-02T23:04:35.577Z,5.80
2018-01-02T23:07:03.923Z,5.80
2018-01-02T23:09:31.570Z,5.80
2018-01-02T23:11:59.238Z,5.80
2018-01-02T23:14:26.783Z,5.80
2018-01-02T23:16:54.381Z,5.80
2018-01-02T23:19:21.959Z,5.80
2018-01-02T23:21:50.311Z,5.80
2018-01-02T23:24:17.944Z,5.80
2018-01-02T23:26:45.548Z,5.80
2018-01-02T23:29:13.094Z,5.90
2018-01-02T23:31:40.632Z,5.90
2018-01-02T23:34:08.337Z,5.90
2018-01-02T23:36:35.932Z,5.90
2018-01-02T23:39:03.488Z,5.90
2018-01-02T23:41:31.025Z,5.90
2018-01-02T23:44:00.110Z,5.90
2018-01-02T23:46:28.550Z,6.00
2018-01-02T23:48:56.217Z,5.90
2018-01-02T23:51:25.174Z,6.00
2018-01-02T23:53:52.717Z,6.00
2018-01-02T23:56:21.006Z,6.10
2018-01-02T23:58:48.560Z,6.10
